createdAt,value
2023-05-06T00:00:08.613Z,7.05
2023-05-06T00:02:45.255Z,7.30
2023-05-06T00:05:14.153Z,7.82
2023-05-06T00:07:41.929Z,8.10
2023-05-06T00:10:10.653Z,7.55
2023-05-06T00:12:38.649Z,8.10
2023-05-06T00:15:08.034Z,8.57
2023-05-06T00:17:36.375Z,7.50
2023-05-06T00:20:07.218Z,7.90
2023-05-06T00:22:35.422Z,8.63
2023-05-06T00:25:03.677Z,8.55
2023-05-06T00:27:31.587Z,8.02
2023-05-06T00:29:59.426Z,7.88
2023-05-06T00:32:28.295Z,8.43
2023-05-06T00:34:56.179Z,8.43
2023-05-06T00:37:25.381Z,8.32
2023-05-06T00:39:53.104Z,9.07
2023-05-06T00:42:22.500Z,8.18
2023-05-06T00:44:50.476Z,7.77
2023-05-06T00:47:19.274Z,9.15
2023-05-06T00:49:48.501Z,8.20
2023-05-06T00:52:18.607Z,8.13
2023-05-06T00:54:47.874Z,7.88
2023-05-06T00:57:15.700Z,8.97
2023-05-06T00:59:43.462Z,9.52
2023-05-06T01:02:11.625Z,8.27
2023-05-06T01:04:41.420Z,9.90
2023-05-06T01:07:17.284Z,8.93
2023-05-06T01:09:53.540Z,8.40
2023-05-06T01:12:28.998Z,8.27
2023-05-06T01:15:06.532Z,9.65
2023-05-06T01:17:37.111Z,9.00
2023-05-06T01:20:10.706Z,8.90
2023-05-06T01:22:39.410Z,8.30
2023-05-06T01:25:09.474Z,9.65
2023-05-06T01:27:37.479Z,8.70
2023-05-06T01:30:07.474Z,8.90
2023-05-06T01:32:41.860Z,9.65
2023-05-06T01:35:17.962Z,9.20
2023-05-06T01:37:50.794Z,9.30
2023-05-06T01:40:20.744Z,8.18
2023-05-06T01:42:50.827Z,8.65
2023-05-06T01:45:20.906Z,9.88
2023-05-06T01:47:49.291Z,9.20
2023-05-06T01:50:17.210Z,9.30
2023-05-06T01:52:44.994Z,9.45
2023-05-06T01:55:13.546Z,9.02
2023-05-06T01:57:42.985Z,9.43
2023-05-06T02:00:11.863Z,9.23
2023-05-06T02:02:42.398Z,9.85
2023-05-06T02:05:10.985Z,9.68
2023-05-06T02:07:44.076Z,9.90
2023-05-06T02:10:12.246Z,8.85
2023-05-06T02:12:45.341Z,8.77
2023-05-06T02:15:13.294Z,8.63
2023-05-06T02:17:41.072Z,9.35
2023-05-06T02:20:10.562Z,8.45
2023-05-06T02:22:38.431Z,8.55
2023-05-06T02:25:07.752Z,9.43
2023-05-06T02:27:35.685Z,8.65
2023-05-06T02:30:06.223Z,9.30
2023-05-06T02:32:34.103Z,7.78
2023-05-06T02:35:01.893Z,8.90
2023-05-06T02:37:29.790Z,8.73
2023-05-06T02:39:57.637Z,8.95
2023-05-06T02:42:25.785Z,9.30
2023-05-06T02:44:53.585Z,8.20
2023-05-06T02:47:22.852Z,8.02
2023-05-06T02:49:50.668Z,9.30
2023-05-06T02:52:19.774Z,9.60
2023-05-06T02:54:47.536Z,8.93
2023-05-06T02:57:15.359Z,8.45
2023-05-06T02:59:43.242Z,8.18
2023-05-06T03:02:11.032Z,8.07
2023-05-06T03:04:40.435Z,9.02
2023-05-06T03:07:08.440Z,8.80
2023-05-06T03:09:36.291Z,9.20
2023-05-06T03:12:04.465Z,9.20
2023-05-06T03:14:32.317Z,8.87
2023-05-06T03:17:00.984Z,9.75
2023-05-06T03:19:29.462Z,8.85
2023-05-06T03:21:58.637Z,8.20
2023-05-06T03:24:27.509Z,8.77
2023-05-06T03:26:55.639Z,9.57
2023-05-06T03:29:23.705Z,9.52
2023-05-06T03:31:53.077Z,9.23
2023-05-06T03:34:22.794Z,8.68
2023-05-06T03:36:50.651Z,8.18
2023-05-06T03:39:20.357Z,9.17
2023-05-06T03:41:48.393Z,8.18
2023-05-06T03:44:16.455Z,8.80
2023-05-06T03:46:44.639Z,8.43
2023-05-06T03:49:13.009Z,8.45
2023-05-06T03:51:42.323Z,8.20
2023-05-06T03:54:10.405Z,8.32
2023-05-06T03:56:39.560Z,7.75
2023-05-06T03:59:07.495Z,8.30
2023-05-06T04:01:35.381Z,8.80
2023-05-06T04:04:03.356Z,8.27
2023-05-06T04:06:31.683Z,8.27
2023-05-06T04:08:59.446Z,8.15
2023-05-06T04:11:29.730Z,8.32
2023-05-06T04:14:01.088Z,7.95
2023-05-06T04:16:29.383Z,8.23
2023-05-06T04:18:57.572Z,8.45
2023-05-06T04:21:26.204Z,7.90
2023-05-06T04:24:00.129Z,8.48
2023-05-06T04:26:35.077Z,8.73
2023-05-06T04:29:04.766Z,8.20
2023-05-06T04:31:35.440Z,8.63
2023-05-06T04:34:07.841Z,8.43
2023-05-06T04:36:37.191Z,8.45
2023-05-06T04:39:14.015Z,8.40
2023-05-06T04:41:42.868Z,8.97
2023-05-06T04:44:14.140Z,8.93
2023-05-06T04:46:44.360Z,9.05
2023-05-06T04:49:12.682Z,8.45
2023-05-06T04:51:42.153Z,8.93
2023-05-06T04:54:09.991Z,8.73
2023-05-06T04:56:38.603Z,9.00
2023-05-06T04:59:07.926Z,7.72
2023-05-06T05:01:37.531Z,7.80
2023-05-06T05:04:05.622Z,6.82
2023-05-06T05:06:33.379Z,7.60
2023-05-06T05:09:01.672Z,6.85
2023-05-06T05:11:30.395Z,7.43
2023-05-06T05:14:01.889Z,6.82
2023-05-06T05:16:31.391Z,6.95
2023-05-06T05:19:03.322Z,7.80
2023-05-06T05:21:32.920Z,7.35
2023-05-06T05:24:01.773Z,7.85
2023-05-06T05:26:30.564Z,8.40
2023-05-06T05:29:00.433Z,8.20
2023-05-06T05:31:31.165Z,9.20
2023-05-06T05:34:00.668Z,8.90
2023-05-06T05:36:29.155Z,8.52
2023-05-06T05:38:59.269Z,8.75
2023-05-06T05:41:29.698Z,8.88
2023-05-06T05:43:57.482Z,9.10
2023-05-06T05:46:27.453Z,9.25
2023-05-06T05:48:56.997Z,9.13
2023-05-06T05:51:26.615Z,9.65
2023-05-06T05:53:55.266Z,9.95
2023-05-06T05:56:26.329Z,10.67
2023-05-06T05:58:54.978Z,10.45
2023-05-06T06:01:22.936Z,11.50
2023-05-06T06:03:50.952Z,12.15
2023-05-06T06:06:18.777Z,12.07
2023-05-06T06:08:48.421Z,12.87
2023-05-06T06:11:16.768Z,12.95
2023-05-06T06:14:01.414Z,13.10
2023-05-06T06:16:30.973Z,14.15
2023-05-06T06:18:59.045Z,14.90
2023-05-06T06:21:29.558Z,14.70
2023-05-06T06:23:59.232Z,14.05
2023-05-06T06:26:27.397Z,13.48
2023-05-06T06:28:55.541Z,14.05
2023-05-06T06:31:23.530Z,14.27
2023-05-06T06:33:54.914Z,15.20
2023-05-06T06:36:24.992Z,16.55
2023-05-06T06:39:08.018Z,16.45
2023-05-06T06:41:40.310Z,14.82
2023-05-06T06:44:08.806Z,15.35
2023-05-06T06:46:36.720Z,16.43
2023-05-06T06:49:05.071Z,17.25
2023-05-06T06:51:32.889Z,16.00
2023-05-06T06:54:02.095Z,16.20
2023-05-06T06:56:30.703Z,15.32
2023-05-06T06:58:58.511Z,15.67
2023-05-06T07:01:26.499Z,16.00
2023-05-06T07:03:54.514Z,16.35
2023-05-06T07:06:22.451Z,16.17
2023-05-06T07:08:50.163Z,15.13
2023-05-06T07:11:19.367Z,14.53
2023-05-06T07:13:47.104Z,14.80
2023-05-06T07:16:14.925Z,14.13
2023-05-06T07:18:42.748Z,14.10
2023-05-06T07:21:10.477Z,11.77
2023-05-06T07:23:38.214Z,11.60
2023-05-06T07:26:06.119Z,12.35
2023-05-06T07:28:35.325Z,12.98
2023-05-06T07:31:03.209Z,11.30
2023-05-06T07:33:31.436Z,11.70
2023-05-06T07:35:59.261Z,10.80
2023-05-06T07:38:27.025Z,11.32
2023-05-06T07:40:54.831Z,11.00
2023-05-06T07:43:22.985Z,10.02
2023-05-06T07:45:52.283Z,9.43
2023-05-06T07:48:20.449Z,9.87
2023-05-06T07:50:48.323Z,10.55
2023-05-06T07:53:16.077Z,9.77
2023-05-06T07:55:43.843Z,9.93
2023-05-06T07:58:11.641Z,10.27
2023-05-06T08:00:39.564Z,9.60
2023-05-06T08:03:08.759Z,9.68
2023-05-06T08:05:36.720Z,9.00
2023-05-06T08:08:04.717Z,7.65
2023-05-06T08:10:32.478Z,8.85
2023-05-06T08:13:00.376Z,8.00
2023-05-06T08:15:28.249Z,7.50
2023-05-06T08:18:02.114Z,7.22
2023-05-06T08:20:36.456Z,8.00
2023-05-06T08:23:04.258Z,7.45
2023-05-06T08:25:32.122Z,8.37
2023-05-06T08:27:59.953Z,8.98
2023-05-06T08:30:29.609Z,7.25
2023-05-06T08:32:57.375Z,7.10
2023-05-06T08:35:25.170Z,7.45
2023-05-06T08:37:54.374Z,7.93
2023-05-06T08:40:23.983Z,8.73
2023-05-06T08:42:51.928Z,8.07
2023-05-06T08:45:20.311Z,7.25
2023-05-06T08:47:48.254Z,7.50
2023-05-06T08:50:16.664Z,8.43
2023-05-06T08:52:45.022Z,6.53
2023-05-06T08:55:14.996Z,7.35
2023-05-06T08:57:45.543Z,7.28
2023-05-06T09:00:15.075Z,7.10
2023-05-06T09:02:43.860Z,7.47
2023-05-06T09:05:12.527Z,6.82
2023-05-06T09:07:40.870Z,7.35
2023-05-06T09:10:13.100Z,6.97
2023-05-06T09:12:42.456Z,6.95
2023-05-06T09:15:11.402Z,6.30
2023-05-06T09:17:39.508Z,6.60
2023-05-06T09:20:09.558Z,5.95
2023-05-06T09:22:39.631Z,6.22
2023-05-06T09:25:08.417Z,6.35
2023-05-06T09:27:37.357Z,4.70
2023-05-06T09:30:08.567Z,4.95
2023-05-06T09:32:39.305Z,4.63
2023-05-06T09:35:09.613Z,5.13
2023-05-06T09:37:37.992Z,5.20
2023-05-06T09:40:06.767Z,4.67
2023-05-06T09:42:35.749Z,5.07
2023-05-06T09:45:10.205Z,5.20
2023-05-06T09:47:38.599Z,5.40
2023-05-06T09:50:07.600Z,5.18
2023-05-06T09:52:35.945Z,5.37
2023-05-06T09:55:05.022Z,5.82
2023-05-06T09:57:33.710Z,5.43
2023-05-06T10:00:03.797Z,5.63
2023-05-06T10:02:43.707Z,3.90
2023-05-06T10:05:13.003Z,3.93
2023-05-06T10:07:41.846Z,4.30
2023-05-06T10:10:12.979Z,3.80
2023-05-06T10:12:40.952Z,3.63
2023-05-06T10:15:10.459Z,4.22
2023-05-06T10:17:40.891Z,4.40
2023-05-06T10:20:14.224Z,4.32
2023-05-06T10:22:51.125Z,4.40
2023-05-06T10:25:26.886Z,4.25
2023-05-06T10:27:54.697Z,4.55
2023-05-06T10:30:24.786Z,4.20
2023-05-06T10:32:54.193Z,5.30
2023-05-06T10:35:33.673Z,4.40
2023-05-06T10:38:04.374Z,5.60
2023-05-06T10:40:32.798Z,4.82
2023-05-06T10:43:26.675Z,3.50
2023-05-06T10:46:16.392Z,8.07
2023-05-06T10:49:18.409Z,8.63
2023-05-06T10:52:11.666Z,8.52
2023-05-06T10:54:48.803Z,8.05
2023-05-06T10:57:16.665Z,7.13
2023-05-06T10:59:47.867Z,7.80
2023-05-06T11:02:19.890Z,7.78
2023-05-06T11:04:52.733Z,8.05
2023-05-06T11:07:25.270Z,7.25
2023-05-06T11:09:57.490Z,7.60
2023-05-06T11:12:47.037Z,7.53
2023-05-06T11:15:39.111Z,7.90
2023-05-06T11:18:42.784Z,7.30
2023-05-06T11:21:40.595Z,8.23
2023-05-06T11:24:16.236Z,8.63
2023-05-06T11:26:44.505Z,9.07
2023-05-06T11:29:12.304Z,8.40
2023-05-06T11:31:42.382Z,7.72
2023-05-06T11:34:12.093Z,6.70
2023-05-06T11:36:59.467Z,6.00
2023-05-06T11:39:30.855Z,6.35
2023-05-06T11:41:59.973Z,5.50
2023-05-06T11:44:29.400Z,5.70
2023-05-06T11:46:58.207Z,4.95
2023-05-06T11:49:26.749Z,4.83
2023-05-06T11:51:55.170Z,5.03
2023-05-06T11:54:23.696Z,4.38
2023-05-06T11:56:54.392Z,4.68
2023-05-06T11:59:33.333Z,4.45
2023-05-06T12:02:03.837Z,5.03
2023-05-06T12:04:38.964Z,4.63
2023-05-06T12:07:08.043Z,5.32
2023-05-06T12:09:37.088Z,4.60
2023-05-06T12:12:07.785Z,4.13
2023-05-06T12:14:37.126Z,4.33
2023-05-06T12:17:05.976Z,4.50
2023-05-06T12:19:34.271Z,4.57
2023-05-06T12:22:19.225Z,4.25
2023-05-06T12:24:47.610Z,4.55
2023-05-06T12:27:29.804Z,4.67
2023-05-06T12:29:57.672Z,5.15
2023-05-06T12:32:25.477Z,5.07
2023-05-06T12:34:53.325Z,5.45
2023-05-06T12:37:29.650Z,6.25
2023-05-06T12:39:59.222Z,6.23
2023-05-06T12:42:37.459Z,7.32
2023-05-06T12:45:14.766Z,7.38
2023-05-06T12:47:53.503Z,6.97
2023-05-06T12:50:32.421Z,7.30
2023-05-06T12:53:00.417Z,7.93
2023-05-06T12:55:28.294Z,7.70
2023-05-06T12:57:57.996Z,7.53
2023-05-06T13:00:25.978Z,8.13
2023-05-06T13:02:53.870Z,9.25
2023-05-06T13:05:21.821Z,9.07
2023-05-06T13:07:51.202Z,8.90
2023-05-06T13:10:18.958Z,8.52
2023-05-06T13:12:46.848Z,9.40
2023-05-06T13:15:16.149Z,8.55
2023-05-06T13:17:43.987Z,8.40
2023-05-06T13:20:14.043Z,8.82
2023-05-06T13:22:53.719Z,8.82
2023-05-06T13:25:22.112Z,8.48
2023-05-06T13:27:50.047Z,8.90
2023-05-06T13:30:19.194Z,8.60
2023-05-06T13:32:49.391Z,8.38
2023-05-06T13:35:17.155Z,7.07
2023-05-06T13:37:45.033Z,6.78
2023-05-06T13:40:14.547Z,6.88
2023-05-06T13:42:42.446Z,6.20
2023-05-06T13:45:11.086Z,6.07
2023-05-06T13:47:40.186Z,6.47
2023-05-06T13:50:09.048Z,6.85
2023-05-06T13:52:36.958Z,7.03
2023-05-06T13:55:05.160Z,7.37
2023-05-06T13:57:33.115Z,7.03
2023-05-06T14:00:01.111Z,7.35
2023-05-06T14:02:29.011Z,6.95
2023-05-06T14:04:58.185Z,6.72
2023-05-06T14:07:26.049Z,7.47
2023-05-06T14:09:53.725Z,7.47
2023-05-06T14:12:22.898Z,7.47
2023-05-06T14:14:50.733Z,6.50
2023-05-06T14:17:18.762Z,6.35
2023-05-06T14:19:46.695Z,6.33
2023-05-06T14:22:16.071Z,6.20
2023-05-06T14:24:43.894Z,7.45
2023-05-06T14:27:11.632Z,6.63
2023-05-06T14:29:43.044Z,6.32
2023-05-06T14:32:10.887Z,5.90
2023-05-06T14:34:39.338Z,6.32
2023-05-06T14:37:07.950Z,7.40
2023-05-06T14:39:37.091Z,5.55
2023-05-06T14:42:05.079Z,6.72
2023-05-06T14:44:32.852Z,6.33
2023-05-06T14:47:00.677Z,5.55
2023-05-06T14:49:28.555Z,5.72
2023-05-06T14:51:57.218Z,5.90
2023-05-06T14:54:26.726Z,5.93
2023-05-06T14:56:56.532Z,5.17
2023-05-06T14:59:24.247Z,5.03
2023-05-06T15:01:52.017Z,5.45
2023-05-06T15:04:19.764Z,5.10
2023-05-06T15:06:47.625Z,5.00
2023-05-06T15:09:15.770Z,4.93
2023-05-06T15:11:44.188Z,5.32
2023-05-06T15:14:13.297Z,4.85
2023-05-06T15:16:41.444Z,4.88
2023-05-06T15:19:09.347Z,4.90
2023-05-06T15:21:37.102Z,4.50
2023-05-06T15:24:05.547Z,4.35
2023-05-06T15:26:33.315Z,4.63
2023-05-06T15:29:01.165Z,4.28
2023-05-06T15:31:32.217Z,4.80
2023-05-06T15:34:00.870Z,4.37
2023-05-06T15:36:29.122Z,5.22
2023-05-06T15:39:00.450Z,4.78
2023-05-06T15:41:30.564Z,5.28
2023-05-06T15:43:59.143Z,5.55
2023-05-06T15:46:27.459Z,5.40
2023-05-06T15:49:15.608Z,5.93
2023-05-06T15:51:44.660Z,6.35
2023-05-06T15:54:13.087Z,6.03
2023-05-06T15:56:41.612Z,6.32
2023-05-06T15:59:09.834Z,5.93
2023-05-06T16:02:19.040Z,6.57
2023-05-06T16:04:28.361Z,7.55
2023-05-06T16:06:56.231Z,7.32
2023-05-06T16:09:24.463Z,7.20
2023-05-06T16:11:52.399Z,6.83
2023-05-06T16:14:20.756Z,6.60
2023-05-06T16:16:48.696Z,7.15
2023-05-06T16:19:16.582Z,6.38
2023-05-06T16:21:45.789Z,6.00
2023-05-06T16:24:13.593Z,5.30
2023-05-06T16:26:41.395Z,5.20
2023-05-06T16:29:10.122Z,5.25
2023-05-06T16:31:38.460Z,3.92
2023-05-06T16:34:06.402Z,4.40
2023-05-06T16:36:34.518Z,3.90
2023-05-06T16:39:03.712Z,3.35
2023-05-06T16:41:31.474Z,3.00
2023-05-06T16:43:59.430Z,2.60
2023-05-06T16:46:28.666Z,3.13
2023-05-06T16:48:56.494Z,2.77
2023-05-06T16:51:24.737Z,2.75
2023-05-06T16:53:52.517Z,3.47
2023-05-06T16:56:22.672Z,3.45
2023-05-06T16:58:50.576Z,2.72
2023-05-06T17:01:18.465Z,2.50
2023-05-06T17:03:46.345Z,2.58
2023-05-06T17:06:14.399Z,2.78
2023-05-06T17:08:42.152Z,3.10
2023-05-06T17:11:09.876Z,2.25
2023-05-06T17:13:41.975Z,2.80
2023-05-06T17:16:09.898Z,2.50
2023-05-06T17:18:37.660Z,2.78
2023-05-06T17:21:08.500Z,2.97
2023-05-06T17:23:36.472Z,2.80
2023-05-06T17:26:09.753Z,3.20
2023-05-06T17:28:39.894Z,3.45
2023-05-06T17:31:08.132Z,3.65
2023-05-06T17:33:36.723Z,4.30
2023-05-06T17:36:04.619Z,3.83
2023-05-06T17:38:35.175Z,4.10
2023-05-06T17:41:03.120Z,3.53
2023-05-06T17:43:30.918Z,3.78
2023-05-06T17:46:00.336Z,3.90
2023-05-06T17:48:28.158Z,4.20
2023-05-06T17:51:01.111Z,3.73
2023-05-06T17:53:29.067Z,4.22
2023-05-06T17:55:57.063Z,4.80
2023-05-06T17:58:24.974Z,4.78
2023-05-06T18:00:52.818Z,4.90
2023-05-06T18:03:22.185Z,5.00
2023-05-06T18:06:14.066Z,5.10
2023-05-06T18:08:45.519Z,5.00
2023-05-06T18:11:13.427Z,5.78
2023-05-06T18:13:41.164Z,5.50
2023-05-06T18:16:09.173Z,6.13
2023-05-06T18:18:38.491Z,6.22
2023-05-06T18:21:06.451Z,6.90
2023-05-06T18:23:34.371Z,6.95
2023-05-06T18:26:07.565Z,6.72
2023-05-06T18:28:37.774Z,6.73
2023-05-06T18:31:06.027Z,6.95
2023-05-06T18:33:34.601Z,8.30
2023-05-06T18:36:04.145Z,8.45
2023-05-06T18:38:31.980Z,8.63
2023-05-06T18:40:59.847Z,8.77
2023-05-06T18:43:28.585Z,8.70
2023-05-06T18:45:56.627Z,9.52
2023-05-06T18:48:24.600Z,8.13
2023-05-06T18:50:54.235Z,8.48
2023-05-06T18:53:23.305Z,9.30
2023-05-06T18:55:51.625Z,9.40
2023-05-06T18:58:19.590Z,8.93
2023-05-06T19:00:47.499Z,9.02
2023-05-06T19:03:15.282Z,9.32
2023-05-06T19:05:45.827Z,9.50
2023-05-06T19:08:14.033Z,8.88
2023-05-06T19:10:43.250Z,9.43
2023-05-06T19:13:11.731Z,9.52
2023-05-06T19:15:39.450Z,8.93
2023-05-06T19:18:07.716Z,7.97
2023-05-06T19:20:35.664Z,8.73
2023-05-06T19:23:04.846Z,7.80
2023-05-06T19:25:33.963Z,6.80
2023-05-06T19:28:03.285Z,7.68
2023-05-06T19:30:33.360Z,6.80
2023-05-06T19:33:01.531Z,7.15
2023-05-06T19:35:29.383Z,7.10
2023-05-06T19:37:57.253Z,6.65
2023-05-06T19:40:25.062Z,6.90
2023-05-06T19:42:53.749Z,6.80
2023-05-06T19:45:23.110Z,8.30
2023-05-06T19:47:50.888Z,6.78
2023-05-06T19:50:18.846Z,7.88
2023-05-06T19:52:46.597Z,7.45
2023-05-06T19:55:14.416Z,7.77
2023-05-06T19:57:42.240Z,8.25
2023-05-06T20:00:11.876Z,8.27
2023-05-06T20:02:41.425Z,7.55
2023-05-06T20:05:10.232Z,8.05
2023-05-06T20:07:38.624Z,8.73
2023-05-06T20:10:07.475Z,7.40
2023-05-06T20:12:35.506Z,7.97
2023-05-06T20:15:03.575Z,7.63
2023-05-06T20:17:31.409Z,8.07
2023-05-06T20:20:02.592Z,7.50
2023-05-06T20:22:32.330Z,8.75
2023-05-06T20:25:09.497Z,8.20
2023-05-06T20:27:40.875Z,7.57
2023-05-06T20:30:10.476Z,7.50
2023-05-06T20:32:39.158Z,7.57
2023-05-06T20:35:09.979Z,7.72
2023-05-06T20:37:38.171Z,7.47
2023-05-06T20:40:07.789Z,7.85
2023-05-06T20:42:36.029Z,8.10
2023-05-06T20:45:05.476Z,7.43
2023-05-06T20:47:33.637Z,7.15
2023-05-06T20:50:01.615Z,7.70
2023-05-06T20:52:30.984Z,7.60
2023-05-06T20:54:59.063Z,7.38
2023-05-06T20:57:28.398Z,7.77
2023-05-06T20:59:56.187Z,7.80
2023-05-06T21:02:24.101Z,7.10
2023-05-06T21:04:51.878Z,7.32
2023-05-06T21:07:19.625Z,8.20
2023-05-06T21:09:48.766Z,7.70
2023-05-06T21:12:16.553Z,7.82
2023-05-06T21:14:44.313Z,8.45
2023-05-06T21:17:12.743Z,8.10
2023-05-06T21:19:40.543Z,7.82
2023-05-06T21:22:10.806Z,8.30
2023-05-06T21:24:38.609Z,8.30
2023-05-06T21:27:07.726Z,8.55
2023-05-06T21:29:35.465Z,8.98
2023-05-06T21:32:03.201Z,9.45
2023-05-06T21:34:31.361Z,9.87
2023-05-06T21:36:59.110Z,9.93
2023-05-06T21:39:27.004Z,10.07
2023-05-06T21:41:54.831Z,10.00
2023-05-06T21:44:23.965Z,10.90
2023-05-06T21:46:51.753Z,11.03
2023-05-06T21:49:21.882Z,11.48
2023-05-06T21:51:49.778Z,10.98
2023-05-06T21:54:17.850Z,11.40
2023-05-06T21:56:45.849Z,12.18
2023-05-06T21:59:13.636Z,11.50
2023-05-06T22:01:43.030Z,11.93
2023-05-06T22:04:12.838Z,12.68
2023-05-06T22:06:41.115Z,12.57
2023-05-06T22:09:09.956Z,12.60
2023-05-06T22:11:38.727Z,13.03
2023-05-06T22:14:07.063Z,12.73
2023-05-06T22:16:37.744Z,12.98
2023-05-06T22:19:07.722Z,14.05
2023-05-06T22:21:35.860Z,13.27
2023-05-06T22:24:03.674Z,13.83
2023-05-06T22:26:32.982Z,13.13
2023-05-06T22:29:00.796Z,13.50
2023-05-06T22:31:28.601Z,14.32
2023-05-06T22:33:58.059Z,13.25
2023-05-06T22:36:29.444Z,13.23
2023-05-06T22:38:57.461Z,12.73
2023-05-06T22:41:25.941Z,12.57
2023-05-06T22:43:53.782Z,13.45
2023-05-06T22:46:21.630Z,13.35
2023-05-06T22:48:49.876Z,13.20
2023-05-06T22:51:17.951Z,13.15
2023-05-06T22:53:47.130Z,12.65
2023-05-06T22:56:14.903Z,12.93
2023-05-06T22:58:42.668Z,13.70
2023-05-06T23:01:10.460Z,12.70
2023-05-06T23:03:38.537Z,12.82
2023-05-06T23:06:06.618Z,12.65
2023-05-06T23:08:34.338Z,12.23
2023-05-06T23:11:03.530Z,12.35
2023-05-06T23:13:35.989Z,12.97
2023-05-06T23:16:03.870Z,12.98
2023-05-06T23:18:31.653Z,11.68
2023-05-06T23:20:59.433Z,13.02
2023-05-06T23:23:27.127Z,13.30
2023-05-06T23:25:55.308Z,13.33
2023-05-06T23:28:24.605Z,12.07
2023-05-06T23:30:52.403Z,12.70
2023-05-06T23:33:20.161Z,12.50
2023-05-06T23:35:47.841Z,12.27
2023-05-06T23:38:15.580Z,12.00
2023-05-06T23:40:43.360Z,12.52
2023-05-06T23:43:11.301Z,12.65
2023-05-06T23:45:40.668Z,11.63
2023-05-06T23:48:08.541Z,12.27
2023-05-06T23:50:36.343Z,12.27
2023-05-06T23:53:04.294Z,12.38
2023-05-06T23:55:32.389Z,12.05
2023-05-06T23:58:00.212Z,12.30
